createdAt,value
2023-03-23T15:58:41.959Z,17.20
2023-03-23T16:01:31.503Z,17.10
2023-03-23T16:04:06.445Z,17.00
2023-03-23T16:06:35.499Z,16.90
2023-03-23T16:09:05.396Z,16.90
2023-03-23T16:11:34.127Z,16.72
2023-03-23T16:14:02.646Z,16.60
2023-03-23T16:16:49.714Z,16.50
2023-03-23T16:19:20.668Z,16.30
2023-03-23T16:21:48.713Z,16.30
2023-03-23T16:24:16.656Z,16.20
2023-03-23T16:26:44.540Z,16.10
2023-03-23T16:29:24.439Z,16.00
2023-03-23T16:32:02.396Z,15.92
2023-03-23T16:34:33.642Z,15.88
2023-03-23T16:37:02.028Z,15.80
2023-03-23T16:39:29.902Z,15.70
2023-03-23T16:41:57.850Z,15.66
2023-03-23T16:44:25.789Z,15.60
2023-03-23T16:46:53.753Z,15.50
2023-03-23T16:49:21.586Z,15.50
2023-03-23T16:51:49.545Z,15.40
2023-03-23T16:54:17.398Z,15.30
2023-03-23T16:56:47.022Z,15.20
2023-03-23T16:59:15.215Z,15.20
2023-03-23T17:01:43.350Z,15.10
2023-03-23T17:04:16.730Z,15.00
2023-03-23T17:06:46.103Z,15.00
2023-03-23T17:09:13.969Z,14.90
2023-03-23T17:11:42.000Z,14.90
2023-03-23T17:14:10.055Z,14.82
2023-03-23T17:16:38.670Z,14.80
2023-03-23T17:19:07.382Z,14.70
2023-03-23T17:21:36.328Z,14.70
2023-03-23T17:24:04.597Z,14.60
2023-03-23T17:26:32.793Z,14.60
2023-03-23T17:29:00.829Z,14.50
2023-03-23T17:31:29.091Z,14.50
2023-03-23T17:33:57.852Z,14.46
2023-03-23T17:36:27.031Z,14.40
2023-03-23T17:38:57.374Z,14.38
2023-03-23T17:41:25.452Z,14.30
2023-03-23T17:43:53.631Z,14.30
2023-03-23T17:46:21.793Z,14.20
2023-03-23T17:48:50.523Z,14.10
2023-03-23T17:51:18.519Z,13.92
2023-03-23T17:53:49.163Z,13.70
2023-03-23T17:56:17.172Z,13.50
2023-03-23T17:58:45.574Z,13.30
2023-03-23T18:01:13.465Z,13.20
2023-03-23T18:03:42.236Z,13.10
2023-03-23T18:06:11.723Z,12.90
2023-03-23T18:08:40.157Z,12.72
2023-03-23T18:11:08.234Z,12.60
2023-03-23T18:13:36.719Z,12.50
2023-03-23T18:16:05.833Z,12.40
2023-03-23T18:18:33.755Z,12.30
2023-03-23T18:21:07.665Z,12.20
2023-03-23T18:23:46.000Z,12.00
2023-03-23T18:26:22.065Z,12.00
2023-03-23T18:28:53.097Z,11.92
2023-03-23T18:31:21.480Z,11.90
2023-03-23T18:33:50.798Z,11.90
2023-03-23T18:36:20.691Z,11.90
2023-03-23T18:38:48.877Z,11.90
2023-03-23T18:41:17.204Z,11.76
2023-03-23T18:43:45.264Z,11.70
2023-03-23T18:46:13.799Z,11.60
2023-03-23T18:48:42.002Z,11.60
2023-03-23T18:51:09.939Z,11.52
2023-03-23T18:53:37.877Z,11.54
2023-03-23T18:56:08.319Z,11.52
2023-03-23T18:58:36.617Z,11.50
2023-03-23T19:01:14.353Z,11.40
2023-03-23T19:03:42.391Z,11.30
2023-03-23T19:06:18.963Z,11.20
2023-03-23T19:08:48.068Z,11.10
2023-03-23T19:11:16.234Z,11.10
2023-03-23T19:13:53.893Z,11.10
2023-03-23T19:16:26.762Z,11.10
2023-03-23T19:18:57.869Z,11.10
2023-03-23T19:21:29.049Z,11.10
2023-03-23T19:24:02.107Z,11.00
2023-03-23T19:26:36.604Z,10.90
2023-03-23T19:29:26.150Z,10.90
2023-03-23T19:31:55.914Z,10.80
2023-03-23T19:34:27.346Z,10.80
2023-03-23T19:37:04.731Z,10.80
2023-03-23T19:39:34.177Z,10.80
2023-03-23T19:42:02.316Z,10.80
2023-03-23T19:44:32.383Z,10.72
2023-03-23T19:47:01.221Z,10.60
2023-03-23T19:49:29.361Z,10.50
2023-03-23T19:52:07.931Z,10.50
2023-03-23T19:54:39.616Z,10.52
2023-03-23T19:57:10.086Z,10.60
2023-03-23T19:59:38.625Z,10.60
2023-03-23T20:02:07.117Z,10.60
2023-03-23T20:04:35.400Z,10.60
2023-03-23T20:07:07.589Z,10.50
2023-03-23T20:09:38.892Z,10.40
2023-03-23T20:12:07.243Z,10.30
2023-03-23T20:14:36.976Z,10.22
2023-03-23T20:17:09.724Z,10.20
2023-03-23T20:19:38.418Z,10.20
2023-03-23T20:22:06.336Z,10.20
2023-03-23T20:24:34.218Z,10.24
2023-03-23T20:27:03.996Z,10.30
2023-03-23T20:29:33.565Z,10.30
2023-03-23T20:32:01.883Z,10.30
2023-03-23T20:34:31.189Z,10.30
2023-03-23T20:37:00.008Z,10.30
2023-03-23T20:39:30.659Z,10.30
2023-03-23T20:42:00.625Z,10.28
2023-03-23T20:44:31.295Z,10.20
2023-03-23T20:47:02.747Z,10.20
2023-03-23T20:49:30.987Z,10.20
2023-03-23T20:51:59.951Z,10.10
2023-03-23T20:54:28.991Z,10.10
2023-03-23T20:56:58.857Z,10.10
2023-03-23T20:59:26.974Z,10.02
2023-03-23T21:01:54.903Z,10.00
2023-03-23T21:04:27.150Z,10.00
2023-03-23T21:06:56.051Z,10.00
2023-03-23T21:09:25.293Z,10.10
2023-03-23T21:11:53.348Z,10.10
2023-03-23T21:14:22.743Z,10.20
2023-03-23T21:16:51.098Z,10.20
2023-03-23T21:19:20.497Z,10.10
2023-03-23T21:21:55.947Z,10.10
2023-03-23T21:24:28.780Z,9.96
2023-03-23T21:26:58.554Z,9.90
2023-03-23T21:29:29.384Z,9.80
2023-03-23T21:34:28.572Z,9.70
2023-03-23T21:36:56.414Z,9.62
2023-03-23T21:39:24.444Z,9.60
2023-03-23T21:41:52.450Z,9.66
2023-03-23T21:44:20.382Z,9.70
2023-03-23T21:46:48.402Z,9.70
2023-03-23T21:49:16.435Z,9.80
2023-03-23T21:51:44.360Z,9.80
2023-03-23T21:54:13.170Z,9.86
2023-03-23T21:56:44.130Z,9.80
2023-03-23T21:59:12.290Z,9.50
2023-03-23T22:01:40.865Z,9.30
2023-03-23T22:04:08.889Z,9.20
2023-03-23T22:06:37.369Z,9.30
2023-03-23T22:09:05.622Z,9.24
2023-03-23T22:11:34.179Z,9.30
2023-03-23T22:14:02.644Z,9.30
2023-03-23T22:16:31.571Z,9.40
2023-03-23T22:19:00.505Z,9.40
2023-03-23T22:21:29.112Z,9.50
2023-03-23T22:24:00.842Z,9.50
2023-03-23T22:26:29.226Z,9.60
2023-03-23T22:28:58.173Z,9.60
2023-03-23T22:31:29.511Z,9.60
2023-03-23T22:34:01.206Z,9.60
2023-03-23T22:36:30.005Z,9.60
2023-03-23T22:38:58.175Z,9.50
2023-03-23T22:41:28.062Z,9.40
2023-03-23T22:43:58.577Z,9.30
2023-03-23T22:46:27.782Z,9.20
2023-03-23T22:48:55.874Z,9.16
2023-03-23T22:51:24.112Z,9.10
2023-03-23T22:53:52.057Z,9.10
2023-03-23T22:56:20.124Z,9.10
2023-03-23T22:58:48.093Z,9.10
2023-03-23T23:01:20.654Z,9.10
2023-03-23T23:03:48.761Z,9.00
2023-03-23T23:06:17.332Z,8.90
2023-03-23T23:08:46.812Z,8.80
2023-03-23T23:11:16.276Z,8.70
2023-03-23T23:13:44.314Z,8.70
2023-03-23T23:16:13.172Z,8.80
2023-03-23T23:18:41.966Z,8.80
2023-03-23T23:21:13.050Z,8.70
2023-03-23T23:23:41.491Z,8.70
2023-03-23T23:26:10.556Z,8.60
2023-03-23T23:28:38.758Z,8.60
2023-03-23T23:31:19.105Z,8.60
2023-03-23T23:33:47.338Z,8.60
2023-03-23T23:36:15.358Z,8.58
2023-03-23T23:38:45.150Z,8.50
2023-03-23T23:41:13.590Z,8.50
2023-03-23T23:43:41.702Z,8.50
2023-03-23T23:46:09.792Z,8.40
2023-03-23T23:48:38.120Z,8.38
2023-03-23T23:51:06.735Z,8.30
2023-03-23T23:53:34.703Z,8.36
2023-03-23T23:56:03.837Z,8.32
2023-03-23T23:58:32.018Z,8.30
